createdAt,value
2018-09-20T00:01:01.119Z,100873.75
2018-09-20T00:03:31.056Z,100867.52
2018-09-20T00:06:01.116Z,100866.27
2018-09-20T00:08:32.073Z,100875.95
2018-09-20T00:11:02.115Z,100867.73
2018-09-20T00:13:32.093Z,100861.51
2018-09-20T00:16:02.082Z,100860.05
2018-09-20T00:18:32.141Z,100855.20
2018-09-20T00:21:02.139Z,100847.23
2018-09-20T00:23:32.362Z,100852.70
2018-09-20T00:26:02.359Z,100841.14
2018-09-20T00:28:32.368Z,100843.48
2018-09-20T00:31:02.363Z,100841.43
2018-09-20T00:33:32.346Z,100835.43
2018-09-20T00:36:02.344Z,100828.03
2018-09-20T00:38:32.458Z,100838.37
2018-09-20T00:41:02.442Z,100833.98
2018-09-20T00:43:32.395Z,100834.33
2018-09-20T00:46:02.380Z,100839.09
2018-09-20T00:48:32.374Z,100835.27
2018-09-20T00:51:02.337Z,100833.31
2018-09-20T00:53:33.375Z,100829.87
2018-09-20T00:56:03.535Z,100837.62
2018-09-20T00:58:33.584Z,100830.22
2018-09-20T01:01:03.598Z,100832.56
2018-09-20T01:03:33.590Z,100827.73
2018-09-20T01:06:03.661Z,100831.91
2018-09-20T01:08:33.659Z,100831.02
2018-09-20T01:11:03.710Z,100839.14
2018-09-20T01:13:33.787Z,100836.92
2018-09-20T01:16:03.761Z,100823.19
2018-09-20T01:18:33.790Z,100825.97
2018-09-20T01:21:03.746Z,100828.52
2018-09-20T01:23:33.823Z,100832.47
2018-09-20T01:26:03.829Z,100838.83
2018-09-20T01:28:33.828Z,100841.03
2018-09-20T01:31:03.781Z,100845.42
2018-09-20T01:33:33.795Z,100845.64
2018-09-20T01:36:03.783Z,100843.08
2018-09-20T01:38:33.795Z,100835.19
2018-09-20T01:41:03.819Z,100834.37
2018-09-20T01:43:33.915Z,100835.75
2018-09-20T01:46:03.897Z,100835.19
2018-09-20T01:48:33.927Z,100840.75
2018-09-20T01:51:03.944Z,100846.53
2018-09-20T01:53:33.833Z,100841.91
2018-09-20T01:56:03.835Z,100819.37
2018-09-20T01:58:33.832Z,100843.87
2018-09-20T02:01:04.102Z,100850.03
2018-09-20T02:03:34.088Z,100848.42
2018-09-20T02:06:05.427Z,100847.03
2018-09-20T02:08:35.458Z,100839.48
2018-09-20T02:11:05.430Z,100837.09
2018-09-20T02:13:35.399Z,100839.86
2018-09-20T02:16:05.386Z,100843.81
2018-09-20T02:18:35.330Z,100846.59
2018-09-20T02:21:05.287Z,100845.42
2018-09-20T02:23:35.235Z,100843.08
2018-09-20T02:26:05.209Z,100843.30
2018-09-20T02:28:35.110Z,100845.14
2018-09-20T02:31:05.011Z,100846.75
2018-09-20T02:33:35.007Z,100847.31
2018-09-20T02:36:04.872Z,100858.09
2018-09-20T02:38:34.513Z,100855.53
2018-09-20T02:41:04.309Z,100857.71
2018-09-20T02:43:33.952Z,100852.75
2018-09-20T02:46:03.586Z,100851.93
2018-09-20T02:48:33.193Z,100847.77
2018-09-20T02:51:02.814Z,100849.75
2018-09-20T02:53:32.429Z,100853.09
2018-09-20T02:56:02.035Z,100851.70
2018-09-20T02:58:31.643Z,100849.53
2018-09-20T03:01:01.279Z,100849.75
2018-09-20T03:03:31.182Z,100850.70
2018-09-20T03:06:01.015Z,100842.14
2018-09-20T03:08:30.649Z,100838.31
2018-09-20T03:11:00.314Z,100849.44
2018-09-20T03:13:29.949Z,100846.81
2018-09-20T03:15:59.934Z,100847.16
2018-09-20T03:18:29.905Z,100849.38
2018-09-20T03:20:59.917Z,100840.37
2018-09-20T03:23:29.959Z,100842.33
2018-09-20T03:25:59.893Z,100843.27
2018-09-20T03:28:30.861Z,100845.48
2018-09-20T03:31:01.115Z,100844.22
2018-09-20T03:33:30.717Z,100845.39
2018-09-20T03:36:00.596Z,100836.04
2018-09-20T03:38:30.228Z,100844.16
2018-09-20T03:40:59.819Z,100844.72
2018-09-20T03:43:31.359Z,100849.27
2018-09-20T03:46:01.017Z,100844.66
2018-09-20T03:48:30.951Z,100843.49
2018-09-20T03:51:00.884Z,100840.49
2018-09-20T03:53:30.478Z,100841.88
2018-09-20T03:56:00.124Z,100837.48
2018-09-20T03:58:29.743Z,100838.88
2018-09-20T04:00:59.369Z,100846.05
2018-09-20T04:03:29.035Z,100845.83
2018-09-20T04:05:58.720Z,100840.49
2018-09-20T04:08:28.475Z,100842.10
2018-09-20T04:10:58.155Z,100845.67
2018-09-20T04:13:27.790Z,100841.16
2018-09-20T04:15:57.447Z,100837.55
2018-09-20T04:18:27.137Z,100840.21
2018-09-20T04:20:56.798Z,100836.27
2018-09-20T04:23:26.434Z,100837.88
2018-09-20T04:25:56.071Z,100839.48
2018-09-20T04:28:25.685Z,100841.09
2018-09-20T04:30:55.326Z,100840.50
2018-09-20T04:33:24.961Z,100843.43
2018-09-20T04:35:54.877Z,100854.27
2018-09-20T04:38:24.803Z,100849.50
2018-09-20T04:40:54.696Z,100847.38
2018-09-20T04:43:24.627Z,100847.03
2018-09-20T04:45:54.358Z,100848.86
2018-09-20T04:48:24.094Z,100847.92
2018-09-20T04:50:54.086Z,100849.75
2018-09-20T04:53:24.050Z,100857.59
2018-09-20T04:55:54.046Z,100849.69
2018-09-20T04:58:24.019Z,100850.95
2018-09-20T05:00:54.015Z,100856.12
2018-09-20T05:03:24.083Z,100858.56
2018-09-20T05:05:54.021Z,100861.78
2018-09-20T05:08:23.970Z,100861.63
2018-09-20T05:10:54.035Z,100860.11
2018-09-20T05:13:23.988Z,100862.73
2018-09-20T05:15:56.781Z,100853.87
2018-09-20T05:18:27.745Z,100856.75
2018-09-20T05:20:57.716Z,100854.27
2018-09-20T05:23:27.804Z,100855.16
2018-09-20T05:25:57.799Z,100856.60
2018-09-20T05:28:27.820Z,100849.73
2018-09-20T05:30:57.862Z,100852.00
2018-09-20T05:33:27.943Z,100843.50
2018-09-20T05:35:57.891Z,100847.97
2018-09-20T05:38:27.907Z,100834.94
2018-09-20T05:40:58.826Z,100838.38
2018-09-20T05:43:28.797Z,100835.11
2018-09-20T05:46:00.819Z,100839.14
2018-09-20T05:49:09.683Z,100838.76
2018-09-20T05:51:40.092Z,100836.28
2018-09-20T05:54:10.051Z,100837.37
2018-09-20T05:56:40.057Z,100834.63
2018-09-20T05:59:10.038Z,100831.55
2018-09-20T06:01:40.104Z,100838.02
2018-09-20T06:04:10.131Z,100842.11
2018-09-20T06:06:40.110Z,100842.37
2018-09-20T06:09:10.688Z,100845.45
2018-09-20T06:11:40.658Z,100848.72
2018-09-20T06:14:10.612Z,100851.80
2018-09-20T06:16:40.640Z,100855.45
2018-09-20T06:19:10.568Z,100855.95
2018-09-20T06:21:40.716Z,100853.64
2018-09-20T06:24:10.689Z,100856.12
2018-09-20T06:26:40.659Z,100848.27
2018-09-20T06:29:10.699Z,100844.38
2018-09-20T06:31:40.763Z,100845.45
2018-09-20T06:34:10.736Z,100846.31
2018-09-20T06:36:40.804Z,100820.44
2018-09-20T06:39:12.727Z,100848.92
2018-09-20T06:41:43.256Z,100851.82
2018-09-20T06:44:13.246Z,100853.11
2018-09-20T06:46:43.159Z,100861.00
2018-09-20T06:49:13.065Z,100867.47
2018-09-20T06:51:43.099Z,100866.18
2018-09-20T06:54:15.281Z,100869.89
2018-09-20T06:56:45.313Z,100873.20
2018-09-20T06:59:15.384Z,100863.38
2018-09-20T07:01:45.342Z,100865.51
2018-09-20T07:04:15.407Z,100864.88
2018-09-20T07:06:45.436Z,100863.02
2018-09-20T07:09:15.611Z,100855.80
2018-09-20T07:11:45.625Z,100854.36
2018-09-20T07:14:15.709Z,100855.88
2018-09-20T07:16:45.786Z,100854.58
2018-09-20T07:19:16.213Z,100842.70
2018-09-20T07:21:46.150Z,100849.22
2018-09-20T07:24:17.966Z,100848.95
2018-09-20T07:26:49.664Z,100843.27
2018-09-20T07:29:19.641Z,100845.14
2018-09-20T07:31:49.606Z,100842.61
2018-09-20T07:34:19.556Z,100837.92
2018-09-20T07:36:49.602Z,100844.17
2018-09-20T07:39:19.610Z,100837.84
2018-09-20T07:41:49.669Z,100841.30
2018-09-20T07:44:20.764Z,100842.19
2018-09-20T07:46:51.756Z,100841.88
2018-09-20T07:49:21.723Z,100833.52
2018-09-20T07:51:51.875Z,100843.98
2018-09-20T07:54:22.013Z,100839.22
2018-09-20T07:56:52.122Z,100845.85
2018-09-20T07:59:22.167Z,100845.31
2018-09-20T08:01:55.587Z,100843.16
2018-09-20T08:04:25.707Z,100842.17
2018-09-20T08:06:55.696Z,100839.39
2018-09-20T08:09:27.247Z,100848.61
2018-09-20T08:11:57.195Z,100845.64
2018-09-20T08:14:27.139Z,100857.05
2018-09-20T08:16:57.001Z,100855.45
2018-09-20T08:19:27.071Z,100851.06
2018-09-20T08:21:57.241Z,100859.26
2018-09-20T08:24:27.180Z,100856.64
2018-09-20T08:26:57.198Z,100847.79
2018-09-20T08:29:27.154Z,100848.59
2018-09-20T08:31:58.060Z,100845.75
2018-09-20T08:34:28.978Z,100841.91
2018-09-20T08:36:58.908Z,100843.70
2018-09-20T08:39:28.838Z,100850.70
2018-09-20T08:41:58.773Z,100848.64
2018-09-20T08:44:28.773Z,100851.22
2018-09-20T08:46:58.751Z,100853.17
2018-09-20T08:51:57.604Z,100848.81
2018-09-20T08:54:28.743Z,100848.98
2018-09-20T08:56:58.886Z,100843.89
2018-09-20T08:59:28.882Z,100846.23
2018-09-20T09:02:00.063Z,100841.13
2018-09-20T09:04:31.297Z,100842.03
2018-09-20T09:07:01.265Z,100841.36
2018-09-20T09:09:31.286Z,100837.30
2018-09-20T09:12:06.888Z,100827.13
2018-09-20T09:14:36.856Z,100825.03
2018-09-20T09:17:06.955Z,100824.90
2018-09-20T09:19:37.024Z,100823.95
2018-09-20T09:22:10.065Z,100821.40
2018-09-20T09:24:43.897Z,100808.38
2018-09-20T09:27:20.484Z,100813.52
2018-09-20T09:29:50.419Z,100812.50
2018-09-20T09:32:20.407Z,100819.02
2018-09-20T09:34:50.386Z,100812.61
2018-09-20T09:37:20.371Z,100807.23
2018-09-20T09:39:50.339Z,100810.75
2018-09-20T09:42:20.308Z,100805.63
2018-09-20T09:44:50.219Z,100806.33
2018-09-20T09:47:20.204Z,100800.61
2018-09-20T09:49:50.272Z,100791.66
2018-09-20T09:52:20.300Z,100789.58
2018-09-20T09:54:50.293Z,100788.26
2018-09-20T09:57:22.034Z,100780.27
2018-09-20T09:59:52.008Z,100787.64
2018-09-20T10:02:21.949Z,100787.75
2018-09-20T10:04:51.844Z,100782.64
2018-09-20T10:07:26.665Z,100785.00
2018-09-20T10:09:56.656Z,100776.45
2018-09-20T10:12:26.684Z,100776.63
2018-09-20T10:14:56.685Z,100771.17
2018-09-20T10:17:26.775Z,100760.91
2018-09-20T10:19:56.830Z,100754.39
2018-09-20T10:22:26.753Z,100755.30
2018-09-20T10:24:56.741Z,100754.34
2018-09-20T10:27:26.721Z,100743.98
2018-09-20T10:29:57.907Z,100740.02
2018-09-20T10:32:27.842Z,100740.70
2018-09-20T10:34:57.826Z,100741.14
2018-09-20T10:37:27.834Z,100740.94
2018-09-20T10:39:58.931Z,100737.95
2018-09-20T10:42:30.780Z,100741.02
2018-09-20T10:45:00.753Z,100746.52
2018-09-20T10:47:30.739Z,100745.51
2018-09-20T10:50:00.807Z,100742.88
2018-09-20T10:52:30.865Z,100732.81
2018-09-20T10:55:00.840Z,100723.73
2018-09-20T10:57:30.834Z,100722.92
2018-09-20T11:00:07.270Z,100714.44
2018-09-20T11:02:37.197Z,100723.59
2018-09-20T11:05:07.295Z,100718.03
2018-09-20T11:07:38.867Z,100704.42
2018-09-20T11:10:08.843Z,100702.89
2018-09-20T11:12:40.686Z,100702.89
2018-09-20T11:15:10.671Z,100703.25
2018-09-20T11:17:40.724Z,100691.50
2018-09-20T11:20:13.645Z,100690.78
2018-09-20T11:22:43.644Z,100697.33
2018-09-20T11:25:13.576Z,100692.72
2018-09-20T11:27:43.611Z,100695.64
2018-09-20T11:30:15.252Z,100687.20
2018-09-20T11:32:45.266Z,100689.50
2018-09-20T11:35:15.281Z,100675.26
2018-09-20T11:37:45.262Z,100675.52
2018-09-20T11:40:18.804Z,100673.58
2018-09-20T11:42:48.751Z,100671.47
2018-09-20T11:45:18.765Z,100676.60
2018-09-20T11:47:48.830Z,100677.67
2018-09-20T11:50:18.882Z,100674.84
2018-09-20T11:52:49.006Z,100674.58
2018-09-20T11:55:20.870Z,100665.55
2018-09-20T11:57:50.834Z,100671.61
2018-09-20T12:00:24.923Z,100664.20
2018-09-20T12:02:54.903Z,100651.89
2018-09-20T12:05:24.941Z,100651.52
2018-09-20T12:07:54.954Z,100653.53
2018-09-20T12:10:26.378Z,100651.73
2018-09-20T12:12:56.307Z,100653.29
2018-09-20T12:15:26.357Z,100658.57
2018-09-20T12:17:56.407Z,100651.27
2018-09-20T12:20:28.113Z,100650.20
2018-09-20T12:22:59.387Z,100640.28
2018-09-20T12:25:29.561Z,100645.34
2018-09-20T12:28:01.110Z,100633.02
2018-09-20T12:30:31.126Z,100627.52
2018-09-20T12:33:01.127Z,100629.02
2018-09-20T12:35:31.420Z,100623.05
2018-09-20T12:38:01.302Z,100618.91
2018-09-20T12:40:31.213Z,100613.31
2018-09-20T12:43:03.000Z,100605.92
2018-09-20T12:45:32.919Z,100600.59
2018-09-20T12:48:03.697Z,100609.95
2018-09-20T12:50:33.656Z,100599.94
2018-09-20T12:53:04.027Z,100605.03
2018-09-20T12:55:33.947Z,100594.54
2018-09-20T12:58:03.897Z,100590.79
2018-09-20T13:00:36.002Z,100592.89
2018-09-20T13:03:06.097Z,100591.06
2018-09-20T13:05:36.664Z,100580.05
2018-09-20T13:08:06.607Z,100577.72
2018-09-20T13:10:37.389Z,100577.45
2018-09-20T13:13:07.490Z,100569.27
2018-09-20T13:15:37.538Z,100569.44
2018-09-20T13:18:07.758Z,100558.59
2018-09-20T13:20:37.974Z,100548.56
2018-09-20T13:23:11.145Z,100538.80
2018-09-20T13:25:41.671Z,100552.37
2018-09-20T13:28:12.023Z,100544.67
2018-09-20T13:30:43.341Z,100535.23
2018-09-20T13:33:13.364Z,100543.92
2018-09-20T13:35:43.323Z,100543.92
2018-09-20T13:38:13.652Z,100549.59
2018-09-20T13:40:43.805Z,100542.84
2018-09-20T13:43:15.500Z,100543.00
2018-09-20T13:45:45.503Z,100533.23
2018-09-20T13:48:15.636Z,100530.56
2018-09-20T13:50:45.627Z,100531.81
2018-09-20T13:53:16.664Z,100529.59
2018-09-20T13:55:46.627Z,100529.76
2018-09-20T13:58:16.598Z,100521.89
2018-09-20T14:00:46.614Z,100516.21
2018-09-20T14:03:16.590Z,100507.23
2018-09-20T14:05:46.894Z,100512.13
2018-09-20T14:08:16.851Z,100507.05
2018-09-20T14:10:47.838Z,100506.28
2018-09-20T14:13:17.837Z,100501.38
2018-09-20T14:15:48.014Z,100505.20
2018-09-20T14:18:18.054Z,100498.44
2018-09-20T14:20:48.111Z,100493.09
2018-09-20T14:23:18.089Z,100483.48
2018-09-20T14:25:49.006Z,100477.17
2018-09-20T14:28:18.989Z,100476.89
2018-09-20T14:30:48.989Z,100471.55
2018-09-20T14:33:18.983Z,100473.91
2018-09-20T14:35:49.046Z,100470.45
2018-09-20T14:38:19.099Z,100458.30
2018-09-20T14:40:49.070Z,100449.17
2018-09-20T14:43:18.941Z,100444.91
2018-09-20T14:45:49.891Z,100438.15
2018-09-20T14:48:19.904Z,100441.31
2018-09-20T14:50:49.913Z,100441.81
2018-09-20T14:53:19.911Z,100434.42
2018-09-20T14:55:49.940Z,100435.20
2018-09-20T14:58:19.969Z,100429.24
2018-09-20T15:00:49.987Z,100426.41
2018-09-20T15:03:20.292Z,100423.73
2018-09-20T15:05:50.322Z,100413.80
2018-09-20T15:08:20.367Z,100409.53
2018-09-20T15:10:50.339Z,100412.82
2018-09-20T15:13:20.359Z,100406.37
2018-09-20T15:15:50.360Z,100412.50
2018-09-20T15:18:20.332Z,100400.81
2018-09-20T15:20:50.317Z,100401.91
2018-09-20T15:23:20.365Z,100394.48
2018-09-20T15:25:51.563Z,100388.31
2018-09-20T15:28:21.652Z,100389.41
2018-09-20T15:30:51.637Z,100389.24
2018-09-20T15:33:21.619Z,100391.59
2018-09-20T15:35:51.641Z,100378.00
2018-09-20T15:38:21.663Z,100382.87
2018-09-20T15:40:51.675Z,100373.86
2018-09-20T15:43:21.715Z,100370.09
2018-09-20T15:45:51.931Z,100365.34
2018-09-20T15:48:21.901Z,100362.17
2018-09-20T15:50:51.911Z,100358.65
2018-09-20T15:53:21.846Z,100359.73
2018-09-20T15:55:51.806Z,100357.47
2018-09-20T15:58:21.924Z,100360.45
2018-09-20T16:00:51.875Z,100353.15
2018-09-20T16:03:21.853Z,100355.16
2018-09-20T16:05:51.995Z,100348.66
2018-09-20T16:08:21.943Z,100343.58
2018-09-20T16:10:52.110Z,100344.62
2018-09-20T16:13:22.081Z,100350.10
2018-09-20T16:15:52.056Z,100347.86
2018-09-20T16:18:22.069Z,100341.97
2018-09-20T16:20:52.007Z,100343.80
2018-09-20T16:23:21.959Z,100339.13
2018-09-20T16:25:51.950Z,100334.97
2018-09-20T16:28:40.000Z,100327.97
2018-09-20T16:32:00.662Z,100321.73
2018-09-20T16:35:13.831Z,100322.63
2018-09-20T16:37:59.192Z,100318.28
2018-09-20T16:40:32.891Z,100317.11
2018-09-20T16:43:04.656Z,100319.95
2018-09-20T16:45:34.712Z,100313.11
2018-09-20T16:48:04.774Z,100302.19
2018-09-20T16:50:34.817Z,100295.34
2018-09-20T16:53:07.100Z,100291.94
2018-09-20T16:55:37.199Z,100295.47
2018-09-20T16:58:07.244Z,100295.53
2018-09-20T17:00:37.167Z,100293.53
2018-09-20T17:03:07.355Z,100295.95
2018-09-20T17:05:37.383Z,100300.38
2018-09-20T17:08:07.352Z,100293.53
2018-09-20T17:10:37.391Z,100290.28
2018-09-20T17:13:07.569Z,100290.67
2018-09-20T17:15:39.492Z,100292.30
2018-09-20T17:18:09.464Z,100299.58
2018-09-20T17:20:39.691Z,100291.95
2018-09-20T17:23:09.817Z,100293.83
2018-09-20T17:25:39.820Z,100287.55
2018-09-20T17:28:09.994Z,100293.40
2018-09-20T17:30:41.078Z,100293.25
2018-09-20T17:33:13.326Z,100290.28
2018-09-20T17:35:43.787Z,100298.43
2018-09-20T17:38:15.359Z,100295.88
2018-09-20T17:40:47.594Z,100290.50
2018-09-20T17:43:20.752Z,100296.84
2018-09-20T17:45:50.833Z,100287.50
2018-09-20T17:48:20.934Z,100294.63
2018-09-20T17:50:51.408Z,100291.70
2018-09-20T17:53:22.037Z,100293.03
2018-09-20T17:55:52.812Z,100291.30
2018-09-20T17:58:23.490Z,100288.98
2018-09-20T18:00:53.520Z,100292.03
2018-09-20T18:03:23.540Z,100292.08
2018-09-20T18:05:53.604Z,100289.33
2018-09-20T18:08:23.740Z,100289.89
2018-09-20T18:10:53.862Z,100290.25
2018-09-20T18:13:23.937Z,100289.67
2018-09-20T18:15:53.947Z,100286.47
2018-09-20T18:18:24.206Z,100282.80
2018-09-20T18:20:54.115Z,100287.56
2018-09-20T18:23:24.200Z,100285.84
2018-09-20T18:25:54.329Z,100287.12
2018-09-20T18:28:24.322Z,100281.17
2018-09-20T18:30:54.367Z,100284.84
2018-09-20T18:33:24.452Z,100282.89
2018-09-20T18:35:54.502Z,100279.34
2018-09-20T18:38:24.603Z,100270.52
2018-09-20T18:40:54.604Z,100267.15
2018-09-20T18:43:24.629Z,100268.01
2018-09-20T18:45:54.671Z,100267.46
2018-09-20T18:48:25.703Z,100264.28
2018-09-20T18:50:55.676Z,100266.36
2018-09-20T18:53:25.654Z,100263.19
2018-09-20T18:55:55.669Z,100264.03
2018-09-20T18:58:25.664Z,100267.70
2018-09-20T19:00:57.848Z,100268.20
2018-09-20T19:03:28.162Z,100268.87
2018-09-20T19:05:58.195Z,100267.58
2018-09-20T19:08:28.187Z,100266.48
2018-09-20T19:10:58.224Z,100268.00
2018-09-20T19:13:28.237Z,100261.02
2018-09-20T19:15:58.264Z,100270.97
2018-09-20T19:18:28.285Z,100270.89
2018-09-20T19:20:58.349Z,100253.36
2018-09-20T19:23:28.274Z,100258.27
2018-09-20T19:25:58.322Z,100256.16
2018-09-20T19:28:28.346Z,100247.64
2018-09-20T19:30:58.408Z,100246.90
2018-09-20T19:33:28.349Z,100243.75
2018-09-20T19:35:58.410Z,100247.22
2018-09-20T19:38:28.478Z,100246.28
2018-09-20T19:40:58.433Z,100240.55
2018-09-20T19:43:28.466Z,100240.73
2018-09-20T19:45:59.511Z,100235.55
2018-09-20T19:48:29.607Z,100234.38
2018-09-20T19:50:59.691Z,100238.77
2018-09-20T19:53:29.668Z,100237.80
2018-09-20T19:55:59.730Z,100234.55
2018-09-20T19:58:29.771Z,100235.95
2018-09-20T20:00:59.769Z,100230.34
2018-09-20T20:03:29.824Z,100227.13
2018-09-20T20:05:59.887Z,100234.34
2018-09-20T20:08:29.860Z,100231.91
2018-09-20T20:10:59.944Z,100224.07
2018-09-20T20:13:30.135Z,100225.66
2018-09-20T20:16:00.190Z,100228.28
2018-09-20T20:18:32.282Z,100218.27
2018-09-20T20:21:02.279Z,100218.27
2018-09-20T20:23:32.273Z,100218.27
2018-09-20T20:26:02.333Z,100216.68
2018-09-20T20:28:32.497Z,100212.28
2018-09-20T20:31:02.501Z,100211.91
2018-09-20T20:33:32.480Z,100204.70
2018-09-20T20:36:03.432Z,100199.08
2018-09-20T20:38:33.403Z,100207.95
2018-09-20T20:41:03.407Z,100203.36
2018-09-20T20:43:33.373Z,100193.75
2018-09-20T20:46:03.381Z,100192.56
2018-09-20T20:48:33.382Z,100185.98
2018-09-20T20:51:03.317Z,100186.64
2018-09-20T20:53:33.331Z,100189.08
2018-09-20T20:56:03.308Z,100194.91
2018-09-20T20:58:33.425Z,100188.14
2018-09-20T21:01:03.362Z,100184.96
2018-09-20T21:03:33.374Z,100180.97
2018-09-20T21:06:03.334Z,100181.22
2018-09-20T21:08:33.380Z,100171.23
2018-09-20T21:11:03.353Z,100168.89
2018-09-20T21:13:33.326Z,100164.12
2018-09-20T21:16:03.202Z,100166.96
2018-09-20T21:18:33.210Z,100164.40
2018-09-20T21:21:03.212Z,100158.81
2018-09-20T21:23:33.195Z,100163.86
2018-09-20T21:26:03.172Z,100154.11
2018-09-20T21:28:33.207Z,100160.55
2018-09-20T21:31:03.186Z,100147.37
2018-09-20T21:33:33.168Z,100138.98
2018-09-20T21:36:03.118Z,100143.75
2018-09-20T21:38:33.057Z,100145.39
2018-09-20T21:41:03.013Z,100132.98
2018-09-20T21:43:33.568Z,100133.42
2018-09-20T21:46:03.539Z,100123.05
2018-09-20T21:48:33.551Z,100127.47
2018-09-20T21:51:04.338Z,100131.73
2018-09-20T21:53:34.225Z,100127.73
2018-09-20T21:56:04.212Z,100121.99
2018-09-20T21:58:36.263Z,100120.22
2018-09-20T22:01:06.237Z,100118.41
2018-09-20T22:03:36.262Z,100107.84
2018-09-20T22:06:06.249Z,100113.25
2018-09-20T22:08:36.239Z,100106.48
2018-09-20T22:11:06.358Z,100095.49
2018-09-20T22:13:36.347Z,100099.31
2018-09-20T22:16:06.556Z,100095.95
2018-09-20T22:18:36.512Z,100085.16
2018-09-20T22:21:06.413Z,100086.00
2018-09-20T22:23:36.399Z,100082.01
2018-09-20T22:26:06.376Z,100088.64
2018-09-20T22:28:36.486Z,100082.66
2018-09-20T22:31:06.891Z,100077.89
2018-09-20T22:33:37.768Z,100073.30
2018-09-20T22:36:07.618Z,100066.32
2018-09-20T22:38:37.547Z,100063.57
2018-09-20T22:41:07.628Z,100061.60
2018-09-20T22:43:37.561Z,100057.02
2018-09-20T22:46:07.566Z,100045.44
2018-09-20T22:48:37.455Z,100048.64
2018-09-20T22:51:07.669Z,100040.85
2018-09-20T22:53:37.807Z,100033.23
2018-09-20T22:56:07.838Z,100033.84
2018-09-20T22:58:37.833Z,100024.83
2018-09-20T23:01:08.039Z,100027.03
2018-09-20T23:03:37.970Z,100020.03
2018-09-20T23:06:07.635Z,100013.03
2018-09-20T23:08:38.649Z,100012.84
2018-09-20T23:11:08.615Z,100006.86
2018-09-20T23:13:38.623Z,100009.44
2018-09-20T23:16:08.584Z,100009.06
2018-09-20T23:18:38.605Z,100008.88
2018-09-20T23:21:08.643Z,100007.09
2018-09-20T23:23:38.626Z,100009.48
2018-09-20T23:26:08.608Z,100001.33
2018-09-20T23:28:38.567Z,100001.73
2018-09-20T23:31:08.572Z,99992.36
2018-09-20T23:33:38.564Z,99989.77
2018-09-20T23:36:08.526Z,99980.98
2018-09-20T23:38:38.501Z,99983.03
2018-09-20T23:41:08.474Z,99979.47
2018-09-20T23:43:38.402Z,99975.52
2018-09-20T23:46:08.436Z,99977.13
2018-09-20T23:48:38.379Z,99978.14
2018-09-20T23:51:08.369Z,99978.35
2018-09-20T23:53:38.311Z,99974.40
2018-09-20T23:56:08.301Z,99977.41
2018-09-20T23:58:38.292Z,99982.22
